Time;durP1;ratioP1;P1;durP2;ratioP2;P2;SDS_P1;SDS_P2;PMS_P1;PMS_P2;Temp;Humidity;BMP_temperature;BMP_pressure;BME280_temperature;BME280_humidity;BME280_pressure;Samples;Min_cycle;Max_cycle;Signal;HPM_P1;HPM_P2
2023/08/28 00:01:53;;;;;;;2.83;1.37;;;;;;;24.72;68.54;99044.06;5112174;28;20197;-76
2023/08/28 00:04:20;;;;;;;2.83;1.30;;;;;;;24.75;67.71;99049.00;5111973;28;20202;-76
2023/08/28 00:06:48;;;;;;;3.00;2.33;;;;;;;24.76;68.32;99040.16;5112467;28;20658;-76
2023/08/28 00:09:14;;;;;;;2.20;2.10;;;;;;;24.79;68.51;99039.88;5112661;28;20287;-76
2023/08/28 00:11:41;;;;;;;4.00;2.03;;;;;;;24.80;68.10;99039.75;5112485;28;20240;-76
2023/08/28 00:14:08;;;;;;;1.77;1.50;;;;;;;24.77;68.83;99034.78;5112585;28;20290;-75
2023/08/28 00:16:35;;;;;;;1.63;1.63;;;;;;;24.69;69.97;99033.84;5112483;27;20195;-75
2023/08/28 00:19:02;;;;;;;2.03;1.93;;;;;;;24.65;70.17;99038.56;5112417;28;20251;-76
2023/08/28 00:21:30;;;;;;;1.27;1.27;;;;;;;24.61;70.56;99037.19;5112520;27;20191;-76
2023/08/28 00:23:58;;;;;;;2.03;1.93;;;;;;;24.56;70.82;99026.28;5112309;28;20260;-76
2023/08/28 00:26:25;;;;;;;1.90;1.80;;;;;;;24.49;71.02;99027.88;5112127;28;20195;-76
2023/08/28 00:28:51;;;;;;;1.60;1.50;;;;;;;24.37;71.46;99023.75;5112038;28;20243;-76
2023/08/28 00:31:18;;;;;;;1.57;1.47;;;;;;;24.35;71.61;99020.44;5112210;28;20247;-76
2023/08/28 00:33:45;;;;;;;1.57;1.57;;;;;;;24.34;71.89;99024.03;5111304;28;20700;-76
2023/08/28 00:36:11;;;;;;;1.90;1.60;;;;;;;24.35;72.09;99023.91;5112001;28;20195;-76
2023/08/28 00:38:38;;;;;;;1.53;1.43;;;;;;;24.33;72.32;99027.63;5112402;28;20202;-76
2023/08/28 00:41:06;;;;;;;2.00;1.90;;;;;;;24.29;72.44;99018.41;5112003;28;20251;-76
2023/08/28 00:43:33;;;;;;;1.93;1.83;;;;;;;24.26;72.95;99016.06;5117894;27;20186;-76
2023/08/28 00:46:02;;;;;;;5.13;2.07;;;;;;;24.29;73.05;99015.78;5132272;27;20239;-76
2023/08/28 00:48:29;;;;;;;2.73;1.83;;;;;;;24.22;73.30;99004.22;5132217;27;20247;-76
2023/08/28 00:50:57;;;;;;;2.10;2.00;;;;;;;24.18;73.22;99003.66;5132344;27;20250;-76
2023/08/28 00:53:24;;;;;;;1.83;1.73;;;;;;;24.27;73.34;99017.69;5132243;27;20225;-76
2023/08/28 00:55:51;;;;;;;1.90;1.80;;;;;;;24.25;73.61;99015.22;5132326;27;20560;-76
2023/08/28 00:58:19;;;;;;;2.13;2.03;;;;;;;24.05;74.55;99000.50;5132185;27;20744;-76
2023/08/28 01:00:47;;;;;;;1.70;1.60;;;;;;;24.15;74.79;99018.84;5132471;27;20186;-76
2023/08/28 01:03:14;;;;;;;1.97;1.87;;;;;;;24.12;75.13;99008.66;5132396;27;20267;-76
2023/08/28 01:05:50;;;;;;;3.97;1.90;;;;;;;24.16;75.22;99015.25;5130192;27;21565;-76
2023/08/28 01:08:28;;;;;;;2.13;2.03;;;;;;;24.16;75.30;99015.25;5110824;28;20243;-76
2023/08/28 01:10:59;;;;;;;1.70;1.63;;;;;;;24.16;75.81;99010.84;5111662;28;20187;-76
2023/08/28 01:13:36;;;;;;;1.50;1.50;;;;;;;24.17;75.73;99011.69;5108804;28;20305;-76
2023/08/28 01:16:05;;;;;;;2.47;1.77;;;;;;;24.17;75.42;99012.47;5111712;28;20187;-76
2023/08/28 01:18:32;;;;;;;2.23;2.13;;;;;;;24.20;75.18;99006.16;5111588;28;20190;-76
2023/08/28 01:21:01;;;;;;;2.27;2.07;;;;;;;24.14;75.08;98998.84;5111641;28;20191;-76
2023/08/28 01:23:35;;;;;;;1.67;1.57;;;;;;;24.07;74.96;99005.59;5111397;28;20204;-76
2023/08/28 01:26:03;;;;;;;4.40;2.10;;;;;;;24.04;74.72;99007.50;5111775;28;20198;-76
2023/08/28 01:28:31;;;;;;;1.50;1.43;;;;;;;24.03;75.03;99005.88;5108619;28;20730;-76
2023/08/28 01:30:57;;;;;;;6.17;2.20;;;;;;;24.03;74.98;99000.66;5111685;28;20198;-76
2023/08/28 01:33:24;;;;;;;1.80;1.60;;;;;;;24.01;74.71;99007.78;5111438;28;20215;-76
2023/08/28 01:35:59;;;;;;;1.47;1.47;;;;;;;23.90;74.83;99007.13;5131919;27;20243;-76
2023/08/28 01:38:33;;;;;;;1.90;1.80;;;;;;;23.84;75.37;98995.44;5131900;27;20663;-76
2023/08/28 01:41:04;;;;;;;1.83;1.73;;;;;;;23.82;75.55;98999.97;5132139;27;20637;-76
2023/08/28 01:43:35;;;;;;;2.50;1.70;;;;;;;23.74;76.28;98994.63;5131686;27;20743;-76
2023/08/28 01:46:03;;;;;;;1.93;1.87;;;;;;;23.68;76.22;98995.19;5119852;27;20201;-76
2023/08/28 01:48:30;;;;;;;1.80;1.70;;;;;;;23.66;76.32;99002.31;5114936;27;20324;-76
2023/08/28 01:50:57;;;;;;;1.87;1.87;;;;;;;23.65;77.21;99000.66;5115239;28;20186;-76
2023/08/28 01:53:23;;;;;;;1.80;1.80;;;;;;;23.63;77.11;98991.31;5115152;28;20214;-76
2023/08/28 01:56:16;;;;;;;6.00;2.27;;;;;;;23.47;77.68;98992.69;5130337;27;20197;-76
2023/08/28 01:58:44;;;;;;;2.80;1.70;;;;;;;23.23;77.47;98957.41;5135780;27;20221;-75
2023/08/28 02:01:11;;;;;;;2.40;2.20;;;;;;;23.38;78.16;99001.31;5135491;27;20247;-76
2023/08/28 02:03:39;;;;;;;1.80;1.70;;;;;;;23.35;78.89;98992.94;5135528;27;20247;-76
2023/08/28 02:06:06;;;;;;;2.13;1.63;;;;;;;23.33;78.97;99000.06;5135558;27;20645;-76
2023/08/28 02:08:33;;;;;;;1.97;1.90;;;;;;;23.27;78.42;98983.13;5135614;27;20247;-76
2023/08/28 02:11:01;;;;;;;4.77;2.13;;;;;;;23.25;78.61;98977.22;5135556;27;20190;-76
2023/08/28 02:13:29;;;;;;;2.17;2.07;;;;;;;23.24;79.32;98977.34;5135246;27;20752;-76
2023/08/28 02:15:56;;;;;;;2.17;1.97;;;;;;;23.28;78.91;98981.34;5135365;27;20319;-76
2023/08/28 02:18:23;;;;;;;1.90;1.80;;;;;;;23.16;79.41;98970.19;5135469;27;20250;-76
2023/08/28 02:20:50;;;;;;;1.83;1.73;;;;;;;23.06;79.95;98976.38;5135567;27;20198;-76
2023/08/28 02:23:16;;;;;;;4.80;1.93;;;;;;;22.94;79.79;98973.84;5132258;27;20194;-76
2023/08/28 02:25:44;;;;;;;2.00;1.90;;;;;;;22.89;80.32;98976.06;5114582;28;20256;-75
2023/08/28 02:28:11;;;;;;;2.07;1.97;;;;;;;22.88;80.34;98974.41;5114136;28;20243;-76
2023/08/28 02:30:39;;;;;;;4.27;1.93;;;;;;;22.75;80.56;98965.97;5114437;28;20653;-76
2023/08/28 02:33:06;;;;;;;2.13;1.70;;;;;;;22.72;80.89;98968.84;5114391;28;20218;-76
2023/08/28 02:35:33;;;;;;;2.10;1.77;;;;;;;22.81;80.75;98967.25;5114389;28;20194;-76
2023/08/28 02:38:00;;;;;;;2.07;1.97;;;;;;;22.83;80.35;98976.59;5133521;27;20197;-75
2023/08/28 02:40:26;;;;;;;1.20;1.20;;;;;;;22.80;79.76;98976.88;5135018;27;20205;-76
2023/08/28 02:42:54;;;;;;;4.70;2.17;;;;;;;22.78;79.48;98976.16;5134609;27;20248;-76
2023/08/28 02:45:21;;;;;;;1.53;1.20;;;;;;;22.71;79.26;98982.06;5134845;27;20190;-76
2023/08/28 02:47:49;;;;;;;2.60;2.40;;;;;;;22.67;79.29;98981.50;5134576;27;20696;-76
2023/08/28 02:50:16;;;;;;;2.67;2.57;;;;;;;22.64;79.47;98981.75;5135203;27;20633;-76
2023/08/28 02:52:43;;;;;;;2.00;1.90;;;;;;;22.54;80.32;98973.03;5134604;27;20348;-76
2023/08/28 02:55:09;;;;;;;1.50;1.43;;;;;;;22.56;80.26;98984.16;5134410;27;20222;-76
2023/08/28 02:57:36;;;;;;;1.70;1.67;;;;;;;22.57;80.23;98977.16;5133470;27;20284;-76
2023/08/28 03:00:03;;;;;;;2.13;1.63;;;;;;;22.58;80.20;98982.25;5134392;27;20604;-76
2023/08/28 03:02:30;;;;;;;1.83;1.73;;;;;;;22.58;80.38;98977.03;5134482;27;20208;-76
2023/08/28 03:04:58;;;;;;;3.33;2.43;;;;;;;22.55;80.33;98972.09;5110982;28;20252;-76
2023/08/28 03:07:25;;;;;;;2.20;2.10;;;;;;;22.51;80.80;98975.91;5113809;28;20288;-76
2023/08/28 03:09:51;;;;;;;2.40;2.30;;;;;;;22.39;81.12;98982.19;5113751;28;20612;-76
2023/08/28 03:12:18;;;;;;;2.07;1.97;;;;;;;22.37;81.58;98978.84;5113704;28;20255;-76
2023/08/28 03:14:45;;;;;;;1.60;1.53;;;;;;;22.39;81.14;98976.97;5113730;27;20230;-76
2023/08/28 03:17:12;;;;;;;2.67;2.57;;;;;;;22.39;80.80;98976.97;5113551;28;20199;-76
2023/08/28 03:19:38;;;;;;;2.30;2.20;;;;;;;22.40;81.43;98978.59;5128306;27;20190;-76
2023/08/28 03:22:06;;;;;;;2.83;2.67;;;;;;;22.38;81.39;98962.25;5133995;27;20190;-76
2023/08/28 03:24:33;;;;;;;2.17;1.47;;;;;;;22.39;81.42;98974.34;5134056;27;20852;-76
2023/08/28 03:27:01;;;;;;;2.20;2.10;;;;;;;22.27;81.95;98970.16;5134076;27;20565;-76
2023/08/28 03:29:27;;;;;;;2.30;2.20;;;;;;;22.25;82.11;98961.63;5134175;27;20220;-76
2023/08/28 03:31:54;;;;;;;1.80;1.70;;;;;;;22.26;82.81;98960.69;5133925;27;20201;-76
2023/08/28 03:34:21;;;;;;;2.00;1.87;;;;;;;22.25;83.02;98956.41;5133654;27;20739;-76
2023/08/28 03:36:48;;;;;;;1.77;1.67;;;;;;;22.23;83.43;98955.72;5133640;27;20201;-76
2023/08/28 03:39:16;;;;;;;1.50;1.40;;;;;;;22.19;83.60;98960.38;5133494;27;20189;-76
2023/08/28 03:41:45;;;;;;;1.60;1.60;;;;;;;22.13;83.86;98952.22;5124697;27;20210;-76
2023/08/28 03:44:11;;;;;;;2.10;2.00;;;;;;;22.13;83.89;98954.84;5112595;28;20209;-76
2023/08/28 03:46:38;;;;;;;3.13;2.07;;;;;;;22.14;84.33;98961.69;5112808;28;20194;-76
2023/08/28 03:49:05;;;;;;;6.03;2.30;;;;;;;22.11;84.54;98967.19;5112627;28;20201;-76
2023/08/28 03:51:32;;;;;;;4.10;1.93;;;;;;;22.02;84.90;98954.91;5112943;28;20201;-76
2023/08/28 03:53:59;;;;;;;2.47;2.27;;;;;;;21.95;85.39;98963.25;5112836;28;20218;-76
2023/08/28 03:56:27;;;;;;;2.07;1.93;;;;;;;21.87;85.62;98964.81;5112789;28;20207;-76
2023/08/28 03:58:53;;;;;;;2.10;2.00;;;;;;;21.75;86.13;98966.66;5113037;28;20250;-76
2023/08/28 04:01:20;;;;;;;2.23;2.17;;;;;;;21.69;86.42;98967.16;5112632;27;20217;-75
2023/08/28 04:03:47;;;;;;;3.33;2.10;;;;;;;21.67;86.44;98969.09;5112756;28;20197;-76
2023/08/28 04:06:14;;;;;;;2.30;2.20;;;;;;;21.65;87.19;98975.38;5112668;28;20411;-76
2023/08/28 04:08:40;;;;;;;2.30;2.20;;;;;;;21.56;87.89;98976.94;5112852;28;20255;-76
2023/08/28 04:11:07;;;;;;;2.13;1.63;;;;;;;21.51;89.36;98981.72;5133495;27;20753;-76
2023/08/28 04:13:36;;;;;;;6.20;2.27;;;;;;;21.51;89.20;98984.34;5125381;27;20213;-76
2023/08/28 04:16:05;;;;;;;1.90;1.80;;;;;;;21.54;89.09;98983.25;5112478;28;20201;-76
2023/08/28 04:18:32;;;;;;;2.60;2.50;;;;;;;21.55;89.02;98985.72;5112352;28;20195;-76
2023/08/28 04:20:59;;;;;;;2.10;2.03;;;;;;;21.52;89.72;98985.97;5112380;28;20219;-76
2023/08/28 04:23:25;;;;;;;1.97;1.87;;;;;;;21.57;89.05;98983.81;5112233;28;20251;-76
2023/08/28 04:25:52;;;;;;;1.80;1.70;;;;;;;21.62;88.92;98986.03;5112419;28;20204;-76
2023/08/28 04:28:19;;;;;;;2.77;1.90;;;;;;;21.64;89.20;98974.56;5112215;28;20189;-75
2023/08/28 04:30:48;;;;;;;1.97;1.87;;;;;;;21.65;89.42;98981.41;5116673;27;20186;-76
2023/08/28 04:33:15;;;;;;;1.97;1.97;;;;;;;21.69;89.40;98977.59;5132623;27;20204;-76
2023/08/28 04:35:42;;;;;;;1.57;1.57;;;;;;;21.73;89.43;98963.34;5132536;27;20285;-76
2023/08/28 04:38:09;;;;;;;2.03;1.90;;;;;;;21.78;90.25;98970.78;5132785;27;20206;-76
2023/08/28 04:40:35;;;;;;;3.07;1.53;;;;;;;21.88;90.44;98975.13;5118398;27;20260;-76
2023/08/28 04:43:02;;;;;;;2.23;2.13;;;;;;;22.05;90.26;98972.91;5111590;28;20191;-76
2023/08/28 04:45:29;;;;;;;3.53;1.70;;;;;;;22.24;89.56;98983.47;5112043;28;20205;-76
2023/08/28 04:47:57;;;;;;;8.43;2.17;;;;;;;22.43;89.92;98970.50;5111988;28;20623;-76
2023/08/28 04:50:24;;;;;;;1.83;1.73;;;;;;;22.65;89.29;98966.88;5111938;28;20207;-76
2023/08/28 04:52:50;;;;;;;4.73;2.07;;;;;;;22.88;88.29;98969.16;5112018;27;20206;-76
2023/08/28 04:55:17;;;;;;;1.73;1.63;;;;;;;23.14;86.68;98971.28;5111818;28;20242;-76
2023/08/28 04:57:44;;;;;;;2.33;2.23;;;;;;;23.39;84.25;98973.38;5111700;28;20608;-76
2023/08/28 05:00:11;;;;;;;2.10;2.00;;;;;;;23.63;82.86;98976.44;5111587;28;20198;-76
2023/08/28 05:02:38;;;;;;;2.10;2.00;;;;;;;23.82;81.39;98967.72;5111628;28;20191;-75
2023/08/28 05:05:07;;;;;;;2.77;2.40;;;;;;;24.05;79.99;98963.81;5111963;28;20206;-76
2023/08/28 05:07:34;;;;;;;2.40;2.20;;;;;;;24.29;80.27;98977.31;5111989;28;20222;-76
2023/08/28 05:10:00;;;;;;;2.07;1.97;;;;;;;24.50;77.25;98969.22;5111354;28;20199;-76
2023/08/28 05:12:27;;;;;;;5.70;2.37;;;;;;;24.73;77.28;98969.66;5111751;28;20202;-76
2023/08/28 05:14:54;;;;;;;2.37;2.27;;;;;;;24.91;75.02;98966.13;5111342;28;20222;-76
2023/08/28 05:17:20;;;;;;;2.23;2.13;;;;;;;24.99;73.90;98970.66;5114522;28;20644;-76
2023/08/28 05:19:47;;;;;;;2.00;1.90;;;;;;;25.14;74.37;98971.00;5114883;27;20195;-77
2023/08/28 05:22:15;;;;;;;7.23;2.50;;;;;;;25.41;73.97;98979.63;5111376;28;20251;-77
2023/08/28 05:24:42;;;;;;;1.70;1.60;;;;;;;25.66;73.88;98978.03;5111231;28;20665;-76
2023/08/28 05:27:09;;;;;;;2.37;2.27;;;;;;;25.92;72.44;98984.16;5111576;28;20199;-76
2023/08/28 05:29:36;;;;;;;1.80;1.70;;;;;;;26.19;71.13;98985.03;5111310;28;20274;-76
2023/08/28 05:32:02;;;;;;;1.73;1.63;;;;;;;26.46;69.63;98987.50;5111492;28;20651;-76
2023/08/28 05:34:29;;;;;;;2.13;1.93;;;;;;;26.72;69.96;98993.50;5111379;28;20210;-76
2023/08/28 05:36:56;;;;;;;2.37;2.27;;;;;;;27.00;69.55;98992.34;5111371;28;20187;-76
2023/08/28 05:39:24;;;;;;;2.57;2.37;;;;;;;27.26;69.19;98996.69;5111208;28;20252;-77
2023/08/28 05:41:50;;;;;;;2.13;2.03;;;;;;;27.50;67.13;98994.09;5111314;28;20264;-76
2023/08/28 05:44:18;;;;;;;2.03;1.93;;;;;;;27.71;66.27;98991.00;5111407;28;20205;-77
2023/08/28 05:46:45;;;;;;;1.77;1.70;;;;;;;27.83;64.00;98987.03;5111735;28;20194;-76
2023/08/28 05:49:11;;;;;;;2.30;2.20;;;;;;;27.98;64.15;98998.56;5111025;28;20201;-77
2023/08/28 05:51:38;;;;;;;2.23;2.13;;;;;;;28.15;63.31;98995.75;5111234;28;20247;-77
2023/08/28 05:54:05;;;;;;;1.93;1.60;;;;;;;28.30;64.44;98990.63;5111134;28;20199;-76
2023/08/28 05:56:33;;;;;;;3.03;2.73;;;;;;;28.31;63.24;98989.63;5111121;28;20248;-76
2023/08/28 05:59:00;;;;;;;9.83;8.93;;;;;;;28.53;63.42;98988.09;5111035;28;20213;-76
2023/08/28 06:01:26;;;;;;;5.07;4.57;;;;;;;28.69;61.02;98992.50;5111179;28;20206;-76
2023/08/28 06:03:56;;;;;;;3.53;3.23;;;;;;;28.78;61.08;98987.03;5111035;28;20191;-76
2023/08/28 06:06:23;;;;;;;3.17;2.97;;;;;;;28.82;61.50;98993.59;5111400;28;20226;-77
2023/08/28 06:08:50;;;;;;;3.10;2.70;;;;;;;28.72;61.38;98993.00;5110719;28;20286;-77
2023/08/28 06:11:17;;;;;;;3.03;2.87;;;;;;;28.78;62.17;98991.47;5110493;28;20203;-77
2023/08/28 06:13:45;;;;;;;5.30;3.33;;;;;;;28.91;60.91;98995.22;5111340;28;20669;-77
2023/08/28 06:16:12;;;;;;;2.77;2.63;;;;;;;29.05;61.32;98989.19;5110801;28;20242;-76
2023/08/28 06:18:39;;;;;;;3.10;2.90;;;;;;;28.89;60.28;98986.63;5112842;28;20191;-77
2023/08/28 06:21:05;;;;;;;2.13;2.03;;;;;;;28.94;59.81;98988.78;5123725;27;20623;-77
2023/08/28 06:23:32;;;;;;;3.93;1.87;;;;;;;28.94;61.03;98992.22;5110944;28;20252;-77
2023/08/28 06:25:59;;;;;;;1.60;1.50;;;;;;;28.67;60.56;98979.47;5111588;28;20195;-76
2023/08/28 06:28:25;;;;;;;2.10;1.97;;;;;;;28.89;59.92;98984.00;5110851;28;20199;-77
2023/08/28 06:30:53;;;;;;;2.13;2.03;;;;;;;28.71;61.33;98980.78;5111085;28;20626;-76
2023/08/28 06:33:20;;;;;;;1.83;1.73;;;;;;;29.03;61.46;98985.91;5114579;28;20199;-77
2023/08/28 06:35:47;;;;;;;2.03;1.93;;;;;;;29.28;60.44;98981.31;5114522;28;20220;-77
2023/08/28 06:38:14;;;;;;;2.07;1.97;;;;;;;29.06;60.85;98984.72;5124685;27;20205;-77
2023/08/28 06:40:41;;;;;;;2.20;2.10;;;;;;;29.25;59.61;98978.22;5135225;27;20228;-76
2023/08/28 06:43:08;;;;;;;3.93;2.03;;;;;;;29.12;60.06;98984.03;5134791;27;20742;-76
2023/08/28 06:45:34;;;;;;;1.88;1.77;;;;;;;29.29;61.05;98990.91;5135044;27;20190;-76
2023/08/28 06:48:03;;;;;;;1.83;1.73;;;;;;;28.95;61.49;98988.59;5135084;27;20194;-77
2023/08/28 06:50:29;;;;;;;2.23;2.13;;;;;;;29.09;61.92;98979.94;5134552;27;20626;-77
2023/08/28 06:52:56;;;;;;;5.87;2.53;;;;;;;29.48;61.59;98971.94;5134661;27;20664;-77
2023/08/28 06:55:23;;;;;;;6.63;2.37;;;;;;;29.68;59.09;98972.28;5128285;27;20259;-77
2023/08/28 06:57:50;;;;;;;2.60;2.47;;;;;;;29.43;58.96;98968.19;5114226;28;20207;-76
2023/08/28 07:00:17;;;;;;;7.93;1.87;;;;;;;28.86;60.41;98973.78;5114011;28;20247;-76
2023/08/28 07:02:44;;;;;;;2.20;2.10;;;;;;;29.11;59.95;98967.38;5113520;28;20195;-77
2023/08/28 07:05:13;;;;;;;4.95;2.88;;;;;;;29.53;58.38;98968.78;5113785;28;20219;-76
2023/08/28 07:07:40;;;;;;;2.30;1.92;;;;;;;29.87;58.28;98963.88;5113681;28;20704;-77
2023/08/28 07:10:07;;;;;;;2.15;2.05;;;;;;;30.18;56.65;98961.09;5113896;28;20673;-77
2023/08/28 07:12:34;;;;;;;2.03;1.98;;;;;;;30.44;55.42;98966.78;5113591;28;20235;-76
2023/08/28 07:15:49;;;;;;;2.30;2.15;;;;;;;30.46;55.47;98963.97;5113833;28;20287;-77
2023/08/28 07:18:16;;;;;;;2.63;2.42;;;;;;;30.72;55.42;98969.59;5113602;28;20195;-76
2023/08/28 07:20:45;;;;;;;5.03;2.88;;;;;;;30.41;53.62;98946.00;5113154;28;20199;-77
2023/08/28 07:23:11;;;;;;;2.85;2.72;;;;;;;30.68;53.83;98985.03;5113354;28;20206;-77
2023/08/28 07:25:38;;;;;;;1.80;1.70;;;;;;;30.80;52.53;98982.72;5113405;27;20202;-77
2023/08/28 07:28:06;;;;;;;2.33;2.20;;;;;;;30.88;52.71;98979.97;5113527;28;20191;-77
2023/08/28 07:30:33;;;;;;;2.33;2.13;;;;;;;31.16;52.26;98983.59;5113200;28;20194;-76
2023/08/28 07:33:00;;;;;;;5.50;1.88;;;;;;;31.39;52.01;98993.19;5113299;28;20277;-77
2023/08/28 07:35:29;;;;;;;2.33;2.22;;;;;;;31.46;51.08;98994.06;5113290;28;20218;-77
2023/08/28 07:37:57;;;;;;;1.70;1.60;;;;;;;31.45;50.55;98992.44;5113342;28;20581;-77
2023/08/28 07:40:24;;;;;;;3.92;2.47;;;;;;;31.51;51.39;98997.00;5126573;27;20752;-76
2023/08/28 07:42:51;;;;;;;3.22;2.35;;;;;;;31.50;50.99;98987.44;5133200;27;20622;-77
2023/08/28 07:45:18;;;;;;;2.72;2.53;;;;;;;31.81;50.71;98998.50;5133928;27;20258;-77
2023/08/28 07:47:45;;;;;;;2.72;2.63;;;;;;;31.46;50.13;98994.06;5133414;27;20218;-77
2023/08/28 07:50:11;;;;;;;3.00;2.20;;;;;;;31.24;49.88;98996.69;5121275;27;20199;-76
2023/08/28 07:52:38;;;;;;;2.50;2.30;;;;;;;31.42;50.66;98996.28;5112822;28;20290;-77
2023/08/28 07:55:07;;;;;;;2.22;2.08;;;;;;;31.44;49.41;99004.06;5112835;28;20337;-76
2023/08/28 07:57:34;;;;;;;2.70;1.88;;;;;;;31.13;49.10;99007.78;5112857;28;20190;-77
2023/08/28 08:00:05;;;;;;;2.47;2.38;;;;;;;31.04;49.00;99002.78;5112846;28;20787;-77
2023/08/28 08:02:32;;;;;;;2.30;2.17;;;;;;;30.93;49.68;98998.75;5112975;28;20547;-76
2023/08/28 08:04:59;;;;;;;2.58;2.35;;;;;;;31.07;49.22;99007.72;5112721;28;20606;-76
2023/08/28 08:07:26;;;;;;;1.67;1.60;;;;;;;30.89;48.54;99002.78;5112664;27;20570;-77
2023/08/28 08:09:52;;;;;;;2.13;2.03;;;;;;;30.96;49.17;98998.41;5112393;28;20240;-77
2023/08/28 08:12:20;;;;;;;1.92;1.83;;;;;;;31.12;48.79;98994.72;5112693;28;20987;-76
2023/08/28 08:14:47;;;;;;;2.28;2.08;;;;;;;31.23;50.11;98995.06;5112345;28;20191;-76
2023/08/28 08:17:14;;;;;;;2.47;2.38;;;;;;;31.11;49.17;98996.59;5112785;28;20195;-76
2023/08/28 08:19:40;;;;;;;2.03;1.92;;;;;;;31.19;48.98;98988.50;5112669;28;20194;-76
2023/08/28 08:22:07;;;;;;;2.15;1.83;;;;;;;31.42;48.68;98985.69;5112237;28;20206;-77
2023/08/28 08:24:34;;;;;;;2.47;2.38;;;;;;;31.50;48.31;98979.47;5112144;28;20251;-76
2023/08/28 08:27:01;;;;;;;4.90;2.72;;;;;;;31.85;48.67;98970.59;5112649;28;20191;-77
2023/08/28 08:29:29;;;;;;;2.80;2.70;;;;;;;32.28;47.94;98963.34;5112250;28;20726;-77
2023/08/28 08:31:56;;;;;;;3.05;2.47;;;;;;;32.51;46.65;98966.56;5112022;28;20191;-77
2023/08/28 08:34:22;;;;;;;2.50;2.30;;;;;;;32.47;44.98;98961.84;5112343;28;20202;-77
2023/08/28 08:36:49;;;;;;;1.98;1.88;;;;;;;32.32;45.01;98964.59;5112009;28;20275;-76
2023/08/28 08:39:16;;;;;;;2.17;2.08;;;;;;;32.20;45.46;98960.88;5111933;28;20700;-77
2023/08/28 08:41:43;;;;;;;8.57;2.63;;;;;;;32.12;44.99;98963.66;5112107;28;20201;-76
2023/08/28 08:44:10;;;;;;;2.47;2.38;;;;;;;32.25;45.43;98959.25;5111961;28;20676;-77
2023/08/28 08:46:41;;;;;;;1.95;1.85;;;;;;;32.47;45.59;98957.38;5112241;28;20194;-77
2023/08/28 08:49:12;;;;;;;1.75;1.65;;;;;;;32.69;45.25;98960.75;5112086;28;20573;-77
2023/08/28 08:51:42;;;;;;;3.33;1.95;;;;;;;32.88;44.00;98954.69;5112039;28;20277;-77
2023/08/28 08:54:18;;;;;;;3.15;1.98;;;;;;;32.80;42.88;98949.53;5111077;28;20182;-76
2023/08/28 08:56:47;;;;;;;3.58;1.73;;;;;;;32.31;43.37;98944.44;5111447;28;20222;-76
2023/08/28 08:59:15;;;;;;;1.92;1.83;;;;;;;32.34;43.83;98935.25;5111249;28;20726;-77
2023/08/28 09:01:43;;;;;;;2.10;2.00;;;;;;;32.58;44.90;98942.72;5111690;28;20669;-77
2023/08/28 09:04:11;;;;;;;2.05;1.95;;;;;;;32.72;43.98;98939.13;5111618;28;20623;-76
2023/08/28 09:06:40;;;;;;;1.70;1.60;;;;;;;32.63;43.33;98935.00;5111610;28;20218;-77
2023/08/28 09:09:08;;;;;;;5.30;2.28;;;;;;;32.65;43.70;98938.28;5111230;28;20251;-77
2023/08/28 09:11:36;;;;;;;2.47;2.28;;;;;;;32.62;45.07;98934.19;5111480;28;20316;-76
2023/08/28 09:14:04;;;;;;;2.25;2.05;;;;;;;32.75;45.02;98928.09;5111350;28;20316;-77
2023/08/28 09:16:33;;;;;;;1.75;1.70;;;;;;;32.88;46.18;98922.84;5111357;28;20305;-77
2023/08/28 09:19:01;;;;;;;1.83;1.73;;;;;;;33.04;46.08;98922.47;5111400;28;20813;-77
2023/08/28 09:21:34;;;;;;;1.67;1.60;;;;;;;33.20;44.95;98916.78;5111290;28;20198;-77
2023/08/28 09:24:01;;;;;;;1.83;1.83;;;;;;;33.13;44.68;98913.31;5111385;28;20760;-77
2023/08/28 09:26:28;;;;;;;1.45;1.45;;;;;;;33.25;43.89;98911.69;5111372;28;20243;-77
2023/08/28 09:29:02;;;;;;;2.22;2.13;;;;;;;33.18;43.05;98902.88;5111547;28;20191;-77
2023/08/28 09:31:29;;;;;;;1.67;1.58;;;;;;;33.30;44.80;98900.47;5111343;28;20205;-77
2023/08/28 09:33:56;;;;;;;4.45;1.88;;;;;;;33.40;44.35;98905.38;5111564;28;20282;-76
2023/08/28 09:36:25;;;;;;;2.33;2.13;;;;;;;33.49;44.17;98894.31;5111423;28;20222;-77
2023/08/28 09:38:52;;;;;;;2.00;1.90;;;;;;;33.54;44.50;98891.06;5111530;28;20202;-77
2023/08/28 09:41:19;;;;;;;3.03;2.30;;;;;;;33.58;43.05;98897.59;5111099;28;20244;-76
2023/08/28 09:43:45;;;;;;;1.85;1.75;;;;;;;33.58;43.84;98887.78;5122697;28;20197;-77
2023/08/28 09:46:12;;;;;;;12.02;4.57;;;;;;;33.64;42.98;98889.63;5131667;27;20624;-76
2023/08/28 09:48:39;;;;;;;7.35;3.08;;;;;;;33.71;42.31;98882.47;5131841;27;20254;-76
2023/08/28 09:51:08;;;;;;;1.58;1.58;;;;;;;33.36;43.44;98890.84;5131738;27;20213;-76
2023/08/28 09:53:37;;;;;;;1.30;1.30;;;;;;;33.28;43.90;98885.75;5131847;27;20198;-77
2023/08/28 09:56:04;;;;;;;2.03;1.92;;;;;;;33.22;43.02;98885.53;5131578;27;20221;-77
2023/08/28 09:58:31;;;;;;;2.17;1.50;;;;;;;33.29;43.28;98866.94;5131667;27;20194;-76
2023/08/28 10:00:58;;;;;;;1.80;1.70;;;;;;;33.51;42.95;98864.88;5131775;27;20252;-76
2023/08/28 10:03:26;;;;;;;1.60;1.50;;;;;;;33.59;43.45;98862.00;5124057;27;20191;-76
2023/08/28 10:05:54;;;;;;;1.80;1.70;;;;;;;33.67;42.37;98867.13;5112555;28;20195;-75
2023/08/28 10:08:23;;;;;;;1.50;1.50;;;;;;;33.67;43.29;98867.94;5114746;28;20248;-76
2023/08/28 10:10:53;;;;;;;3.70;2.15;;;;;;;33.71;42.85;98869.19;5114890;28;20389;-77
2023/08/28 10:13:22;;;;;;;1.65;1.55;;;;;;;33.89;42.81;98868.53;5114735;28;20633;-76
2023/08/28 10:15:54;;;;;;;2.03;1.92;;;;;;;34.05;41.96;98864.63;5114947;28;20237;-76
2023/08/28 10:18:27;;;;;;;2.22;2.15;;;;;;;34.03;41.76;98864.81;5114861;28;20198;-76
2023/08/28 10:20:55;;;;;;;2.65;1.80;;;;;;;33.95;41.79;98859.72;5114797;28;20283;-75
2023/08/28 10:23:24;;;;;;;2.00;1.90;;;;;;;34.03;41.93;98848.84;5121004;27;20194;-76
2023/08/28 10:25:53;;;;;;;2.05;1.95;;;;;;;34.31;40.35;98855.75;5135052;27;20251;-76
2023/08/28 10:28:21;;;;;;;6.82;1.70;;;;;;;34.51;40.98;98857.28;5135093;27;20688;-76
2023/08/28 10:30:49;;;;;;;3.42;1.60;;;;;;;34.61;40.41;98856.84;5135185;27;20206;-77
2023/08/28 10:33:17;;;;;;;1.80;1.70;;;;;;;34.45;38.65;98851.97;5135000;27;20186;-76
2023/08/28 10:35:45;;;;;;;1.45;1.45;;;;;;;34.31;39.72;98855.75;5134940;27;20262;-76
2023/08/28 10:38:12;;;;;;;1.52;1.42;;;;;;;34.27;38.94;98848.19;5135210;27;20262;-76
2023/08/28 10:40:40;;;;;;;1.23;1.20;;;;;;;34.35;38.24;98847.13;5134846;27;20191;-77
2023/08/28 10:43:09;;;;;;;1.30;1.20;;;;;;;34.51;39.19;98846.63;5135196;27;20646;-76
2023/08/28 10:45:39;;;;;;;1.63;1.52;;;;;;;34.44;37.84;98834.41;5134792;27;20254;-76
2023/08/28 10:48:07;;;;;;;1.02;1.02;;;;;;;34.18;37.67;98840.66;5134876;27;20254;-76
2023/08/28 10:50:37;;;;;;;3.20;1.23;;;;;;;33.97;37.76;98838.22;5123218;27;20251;-77
2023/08/28 10:53:04;;;;;;;1.33;1.33;;;;;;;34.09;39.93;98832.03;5114328;28;20285;-76
2023/08/28 10:55:31;;;;;;;1.83;1.73;;;;;;;34.07;36.66;98834.09;5114209;27;20214;-76
2023/08/28 10:58:02;;;;;;;1.50;1.40;;;;;;;34.01;34.79;98834.94;5114229;27;20206;-76
2023/08/28 11:00:34;;;;;;;0.93;0.90;;;;;;;34.09;34.71;98824.06;5114051;28;20229;-76
2023/08/28 11:03:07;;;;;;;1.35;1.25;;;;;;;34.18;35.52;98830.00;5113802;27;20736;-75
2023/08/28 11:05:34;;;;;;;1.10;1.10;;;;;;;34.20;36.72;98823.44;5114058;28;20213;-76
2023/08/28 11:08:04;;;;;;;1.20;1.20;;;;;;;34.22;34.75;98826.69;5113937;28;20279;-76
2023/08/28 11:10:31;;;;;;;1.38;1.38;;;;;;;34.31;37.33;98821.16;5113733;28;20251;-76
2023/08/28 11:13:02;;;;;;;2.40;1.52;;;;;;;34.23;36.82;98812.38;5113703;28;20625;-75
2023/08/28 11:15:32;;;;;;;1.85;1.75;;;;;;;34.35;37.10;98811.72;5113526;28;20673;-76
2023/08/28 11:18:29;;;;;;;2.00;1.90;;;;;;;34.60;35.96;98817.94;5112829;28;20195;-76
2023/08/28 11:20:58;;;;;;;1.38;1.27;;;;;;;34.66;35.85;98803.78;5050973;28;20196;-76
2023/08/28 11:23:33;;;;;;;1.10;1.10;;;;;;;34.76;35.95;98801.47;5099900;28;20281;-76
2023/08/28 11:26:02;;;;;;;3.00;1.50;;;;;;;34.85;34.76;98800.16;5113470;28;20208;-77
2023/08/28 11:28:31;;;;;;;1.70;1.60;;;;;;;34.82;34.38;98795.28;5113508;28;20195;-77
2023/08/28 11:31:04;;;;;;;1.38;1.20;;;;;;;34.70;33.64;98792.47;5113545;28;20206;-77
2023/08/28 11:33:39;;;;;;;1.15;1.15;;;;;;;34.75;32.33;98768.69;5113443;28;20195;-78
2023/08/28 11:36:06;;;;;;;1.23;1.23;;;;;;;34.92;34.50;98784.94;5112935;28;20638;-78
2023/08/28 11:38:33;;;;;;;1.10;1.10;;;;;;;35.02;32.76;98779.97;5113458;28;20555;-78